Time;durP1;ratioP1;P1;durP2;ratioP2;P2;SDS_P1;SDS_P2;PMS_P1;PMS_P2;Temp;Humidity;BMP_temperature;BMP_pressure;BME280_temperature;BME280_humidity;BME280_pressure;Samples;Min_cycle;Max_cycle;Signal;HPM_P1;HPM_P2
2021/11/27 00:00:30;;;;;;;;;;;3.10;99.90;;;;;;5035825;28;20262;-80
2021/11/27 00:02:57;;;;;;;7.88;4.03;;;3.00;99.90;;;;;;5008403;28;20015;-80
2021/11/27 00:05:23;;;;;;;3.88;2.55;;;3.10;99.90;;;;;;5025123;28;20069;-81
2021/11/27 00:07:50;;;;;;;6.13;3.40;;;3.30;99.90;;;;;;5021665;28;20505;-81
2021/11/27 00:10:18;;;;;;;3.75;3.38;;;3.10;99.90;;;;;;5026181;28;20037;-81
2021/11/27 00:12:46;;;;;;;8.43;3.90;;;;;;;;;;5009678;28;20042;-80
2021/11/27 00:15:14;;;;;;;7.97;3.45;;;3.20;99.90;;;;;;5028535;28;20042;-79
2021/11/27 00:17:41;;;;;;;14.98;4.38;;;3.20;99.90;;;;;;5000994;28;20781;-78
2021/11/27 00:20:11;;;;;;;6.50;4.38;;;3.20;99.90;;;;;;4992388;28;20402;-80
2021/11/27 00:22:37;;;;;;;5.32;3.33;;;3.20;99.90;;;;;;5053943;28;20053;-78
2021/11/27 00:25:04;;;;;;;5.03;3.22;;;3.20;99.90;;;;;;4999050;28;20038;-79
2021/11/27 00:27:32;;;;;;;10.07;4.43;;;3.10;99.90;;;;;;5034389;28;20044;-79
2021/11/27 00:29:59;;;;;;;3.72;3.25;;;3.10;99.90;;;;;;5008302;28;20041;-80
2021/11/27 00:32:25;;;;;;;5.28;3.30;;;3.20;99.90;;;;;;5013304;28;20042;-81
2021/11/27 00:34:51;;;;;;;5.72;3.72;;;3.20;99.90;;;;;;5023552;28;20040;-80
2021/11/27 00:37:17;;;;;;;5.50;3.35;;;3.10;99.90;;;;;;5017468;28;20084;-79
2021/11/27 00:39:44;;;;;;;14.05;3.53;;;3.20;99.90;;;;;;4990167;28;20546;-80
2021/11/27 00:42:10;;;;;;;2.67;2.47;;;3.70;99.90;;;;;;5041072;28;20450;-80
2021/11/27 00:44:35;;;;;;;6.55;5.40;;;3.30;99.90;;;;;;5036743;28;20042;-79
2021/11/27 00:47:01;;;;;;;5.05;3.38;;;3.30;99.90;;;;;;5037358;28;20407;-81
2021/11/27 00:49:27;;;;;;;3.83;3.20;;;3.30;99.90;;;;;;5037093;28;20044;-81
2021/11/27 00:51:53;;;;;;;5.00;3.75;;;3.20;99.90;;;;;;5017231;28;20044;-80
2021/11/27 00:54:22;;;;;;;3.55;3.28;;;3.30;99.90;;;;;;5023882;28;20041;-81
2021/11/27 00:56:48;;;;;;;6.03;3.33;;;3.40;99.90;;;;;;5030034;28;20037;-79
2021/11/27 00:59:15;;;;;;;7.60;3.10;;;3.20;99.90;;;;;;5008935;28;20073;-82
2021/11/27 01:01:43;;;;;;;5.35;4.50;;;3.50;99.90;;;;;;5046419;28;20045;-79
2021/11/27 01:04:09;;;;;;;10.57;5.43;;;3.40;99.90;;;;;;5022357;28;20049;-78
2021/11/27 01:06:35;;;;;;;4.35;3.90;;;3.40;99.90;;;;;;5042686;28;20090;-80
2021/11/27 01:09:08;;;;;;;5.38;4.65;;;3.40;99.90;;;;;;5033313;28;20389;-78
2021/11/27 01:11:38;;;;;;;5.63;4.68;;;3.50;99.90;;;;;;5031221;28;20048;-81
2021/11/27 01:14:11;;;;;;;9.13;5.68;;;3.40;99.90;;;;;;5036376;28;20129;-79
2021/11/27 01:16:40;;;;;;;7.97;4.32;;;3.40;99.90;;;;;;5035234;28;20133;-78
2021/11/27 01:19:08;;;;;;;10.88;4.85;;;3.40;99.90;;;;;;5031028;28;20050;-82
2021/11/27 01:21:37;;;;;;;9.80;3.70;;;3.80;99.90;;;;;;5015686;28;20084;-83
2021/11/27 01:24:06;;;;;;;8.68;4.57;;;3.30;99.90;;;;;;5011189;28;20076;-82
2021/11/27 01:26:34;;;;;;;6.40;3.78;;;3.50;99.90;;;;;;5015842;28;20041;-81
2021/11/27 01:29:00;;;;;;;5.75;4.45;;;3.40;99.90;;;;;;4999832;28;20064;-82
2021/11/27 01:31:26;;;;;;;6.18;3.63;;;3.60;99.90;;;;;;5024476;28;20579;-79
2021/11/27 01:33:53;;;;;;;5.13;4.57;;;3.50;99.90;;;;;;5013025;28;20502;-80
2021/11/27 01:36:19;;;;;;;8.15;2.70;;;3.60;99.90;;;;;;5013544;28;20041;-81
2021/11/27 01:38:45;;;;;;;9.25;4.28;;;3.40;99.90;;;;;;5003094;28;20159;-80
2021/11/27 01:41:11;;;;;;;2.70;1.95;;;3.40;99.90;;;;;;4994119;28;20038;-81
2021/11/27 01:43:38;;;;;;;;;;;3.60;99.90;;;;;;5005115;28;20036;-79
2021/11/27 01:46:04;;;;;;;3.47;2.53;;;3.60;99.90;;;;;;5023494;28;20382;-78
2021/11/27 01:48:38;;;;;;;5.28;3.55;;;3.50;99.90;;;;;;5026155;28;20052;-78
2021/11/27 01:51:30;;;;;;;11.40;5.93;;;3.60;99.90;;;;;;5010980;28;20042;-80
2021/11/27 01:54:03;;;;;;;3.40;2.88;;;3.80;99.90;;;;;;5010283;28;20045;-81
2021/11/27 01:56:33;;;;;;;5.25;2.65;;;3.80;99.90;;;;;;5035828;28;20048;-83
2021/11/27 01:59:00;;;;;;;3.63;3.33;;;3.40;99.90;;;;;;5015282;28;20458;-80
2021/11/27 02:01:30;;;;;;;3.38;2.70;;;3.40;99.90;;;;;;5013012;28;20095;-78
2021/11/27 02:03:56;;;;;;;7.30;3.58;;;4.00;99.90;;;;;;5003782;28;20038;-80
2021/11/27 02:06:25;;;;;;;4.28;2.85;;;3.60;99.90;;;;;;5018036;28;20045;-80
2021/11/27 02:08:53;;;;;;;7.15;4.88;;;3.60;99.90;;;;;;5012097;28;20076;-82
2021/11/27 02:11:26;;;;;;;7.78;2.65;;;3.50;99.90;;;;;;4998971;28;20040;-81
2021/11/27 02:13:53;;;;;;;9.18;3.47;;;3.50;99.90;;;;;;5012282;28;20116;-83
2021/11/27 02:16:18;;;;;;;14.95;4.97;;;3.50;99.90;;;;;;5003395;28;20081;-81
2021/11/27 02:18:44;;;;;;;3.72;3.40;;;3.50;99.90;;;;;;5029153;28;20065;-79
2021/11/27 02:21:15;;;;;;;9.57;4.85;;;3.50;99.90;;;;;;5027058;28;20129;-79
2021/11/27 02:23:41;;;;;;;10.10;3.33;;;3.50;99.90;;;;;;5029349;28;20076;-81
2021/11/27 02:26:09;;;;;;;5.10;2.78;;;3.50;99.90;;;;;;4996796;28;20037;-78
2021/11/27 02:28:37;;;;;;;3.70;3.38;;;3.50;99.90;;;;;;5013339;28;20049;-79
2021/11/27 02:31:03;;;;;;;6.25;2.95;;;3.40;99.90;;;;;;5009195;28;20045;-80
2021/11/27 02:33:30;;;;;;;6.28;3.67;;;3.40;99.90;;;;;;5009270;28;20038;-78
2021/11/27 02:35:56;;;;;;;3.83;2.97;;;3.40;99.90;;;;;;5023429;28;20112;-79
2021/11/27 02:38:22;;;;;;;3.65;3.25;;;3.40;99.90;;;;;;5021597;28;20124;-78
2021/11/27 02:40:48;;;;;;;11.63;4.78;;;3.30;99.90;;;;;;5018135;28;20052;-79
2021/11/27 02:43:14;;;;;;;5.68;3.65;;;3.40;99.90;;;;;;5029723;28;20049;-78
2021/11/27 02:45:39;;;;;;;5.43;4.13;;;3.40;99.90;;;;;;5007597;28;20136;-81
2021/11/27 02:48:05;;;;;;;4.65;3.40;;;3.40;99.90;;;;;;5007528;28;20092;-80
2021/11/27 02:50:31;;;;;;;6.13;3.60;;;3.40;99.90;;;;;;5010907;28;20088;-78
2021/11/27 02:52:58;;;;;;;;;;;3.30;99.90;;;;;;5006917;28;20066;-80
2021/11/27 02:55:24;;;;;;;3.55;2.92;;;3.40;99.90;;;;;;5013581;28;20369;-77
2021/11/27 02:57:49;;;;;;;6.75;3.47;;;3.20;99.90;;;;;;5007235;28;20044;-80
2021/11/27 03:00:20;;;;;;;3.33;2.38;;;3.40;99.90;;;;;;5016913;28;20051;-81
2021/11/27 03:02:47;;;;;;;6.50;4.03;;;3.40;99.90;;;;;;5011291;28;20095;-80
2021/11/27 03:05:14;;;;;;;4.85;3.30;;;3.40;99.90;;;;;;5014430;28;20041;-80
2021/11/27 03:07:40;;;;;;;6.50;3.92;;;3.30;99.90;;;;;;5012558;28;20073;-80
2021/11/27 03:10:08;;;;;;;3.38;2.97;;;3.40;99.90;;;;;;5007262;28;20040;-80
2021/11/27 03:12:35;;;;;;;2.55;1.85;;;3.40;99.90;;;;;;5011185;28;20049;-78
2021/11/27 03:15:01;;;;;;;;;;;3.30;99.90;;;;;;5020851;28;20041;-80
2021/11/27 03:17:28;;;;;;;5.10;3.35;;;;;;;;;;5012242;28;19924;-79
2021/11/27 03:19:55;;;;;;;3.45;3.15;;;3.30;99.90;;;;;;5008874;28;20103;-80
2021/11/27 03:22:22;;;;;;;2.95;2.50;;;3.20;99.90;;;;;;5013076;28;20096;-80
2021/11/27 03:24:48;;;;;;;2.88;2.67;;;3.40;99.90;;;;;;5040789;28;20080;-81
2021/11/27 03:27:14;;;;;;;;;;;3.40;99.90;;;;;;5024274;28;20407;-79
2021/11/27 03:29:41;;;;;;;6.37;3.57;;;3.40;99.90;;;;;;5028543;28;19925;-80
2021/11/27 03:32:10;;;;;;;2.92;2.72;;;3.40;99.90;;;;;;5029243;28;20288;-80
2021/11/27 03:34:36;;;;;;;4.32;3.50;;;3.70;99.90;;;;;;5032097;28;20095;-80
2021/11/27 03:37:03;;;;;;;6.18;3.55;;;3.40;99.90;;;;;;5028247;28;20049;-79
2021/11/27 03:39:29;;;;;;;4.88;3.45;;;3.40;99.90;;;;;;5012992;28;20087;-79
2021/11/27 03:41:58;;;;;;;4.95;3.50;;;3.40;99.90;;;;;;5030575;28;20505;-79
2021/11/27 03:44:24;;;;;;;5.53;3.72;;;3.50;99.90;;;;;;5030346;28;20052;-79
2021/11/27 03:46:50;;;;;;;5.78;3.45;;;3.50;99.90;;;;;;5012426;28;20124;-79
2021/11/27 03:49:21;;;;;;;3.65;3.33;;;3.50;99.90;;;;;;5025569;28;20037;-80
2021/11/27 03:51:46;;;;;;;6.18;3.28;;;3.40;99.90;;;;;;5028953;28;20543;-80
2021/11/27 03:54:12;;;;;;;3.42;2.80;;;3.60;99.90;;;;;;5000342;28;20076;-81
2021/11/27 03:56:38;;;;;;;4.68;2.95;;;3.60;99.90;;;;;;5023369;28;20052;-79
2021/11/27 03:59:06;;;;;;;5.57;2.95;;;3.60;99.90;;;;;;5006850;28;20058;-80
2021/11/27 04:01:32;;;;;;;9.25;4.03;;;3.10;99.90;;;;;;5017756;28;20049;-80
2021/11/27 04:04:00;;;;;;;4.30;3.28;;;3.60;99.90;;;;;;5007489;28;20049;-80
2021/11/27 04:06:26;;;;;;;4.45;3.85;;;4.20;99.90;;;;;;5016963;28;20052;-80
2021/11/27 04:08:54;;;;;;;4.40;3.35;;;4.00;99.90;;;;;;5026087;28;20045;-79
2021/11/27 04:11:20;;;;;;;7.03;3.20;;;3.60;99.90;;;;;;5025663;28;20487;-81
2021/11/27 04:13:46;;;;;;;;;;;4.00;99.90;;;;;;5012058;28;20345;-81
2021/11/27 04:16:12;;;;;;;6.20;2.58;;;3.50;99.90;;;;;;5015316;28;19967;-81
2021/11/27 04:18:37;;;;;;;3.67;2.88;;;3.50;99.90;;;;;;5029095;28;20049;-78
2021/11/27 04:21:04;;;;;;;7.22;3.15;;;3.60;99.90;;;;;;5032285;28;20472;-82
2021/11/27 04:23:30;;;;;;;10.32;4.20;;;3.70;99.90;;;;;;5035060;28;20053;-82
2021/11/27 04:25:56;;;;;;;4.78;3.08;;;3.70;99.90;;;;;;5039930;28;20099;-79
2021/11/27 04:28:22;;;;;;;2.95;2.63;;;3.70;99.90;;;;;;5039429;28;20037;-80
2021/11/27 04:30:48;;;;;;;7.05;4.28;;;3.70;99.90;;;;;;5047427;28;20045;-80
2021/11/27 04:33:13;;;;;;;3.53;3.20;;;3.70;99.90;;;;;;5021752;28;20115;-79
2021/11/27 04:35:40;;;;;;;3.95;2.45;;;3.80;99.90;;;;;;5038984;28;20037;-81
2021/11/27 04:38:06;;;;;;;;;;;3.80;99.90;;;;;;5029939;28;20052;-81
2021/11/27 04:40:32;;;;;;;4.90;3.63;;;3.70;99.90;;;;;;5032811;28;19924;-80
2021/11/27 04:43:01;;;;;;;10.23;4.32;;;3.80;99.90;;;;;;5041250;28;20088;-81
2021/11/27 04:45:27;;;;;;;11.82;2.80;;;3.70;99.90;;;;;;5036225;28;20479;-78
2021/11/27 04:47:53;;;;;;;5.32;4.63;;;3.80;99.90;;;;;;5013295;28;20439;-80
2021/11/27 04:50:19;;;;;;;2.00;1.88;;;3.80;99.90;;;;;;5017891;28;20120;-81
2021/11/27 04:52:44;;;;;;;;;;;3.80;99.90;;;;;;5030826;28;20041;-82
2021/11/27 04:55:11;;;;;;;3.92;2.97;;;3.80;99.90;;;;;;5029737;28;20374;-82
2021/11/27 04:57:37;;;;;;;5.15;3.35;;;3.80;99.90;;;;;;5013820;28;20041;-81
2021/11/27 05:00:05;;;;;;;;;;;3.80;99.90;;;;;;5042995;28;20063;-79
2021/11/27 05:02:31;;;;;;;5.25;2.67;;;3.80;99.90;;;;;;5034963;28;19981;-79
2021/11/27 05:04:57;;;;;;;9.15;3.92;;;3.80;99.90;;;;;;5016773;28;20100;-79
2021/11/27 05:07:22;;;;;;;3.50;3.20;;;3.70;99.90;;;;;;5011493;28;20045;-79
2021/11/27 05:09:49;;;;;;;8.32;4.68;;;;;;;;;;5020534;28;20046;-81
2021/11/27 05:12:16;;;;;;;7.20;2.78;;;3.90;99.90;;;;;;5023588;28;20372;-82
2021/11/27 05:14:41;;;;;;;6.13;3.88;;;3.70;99.90;;;;;;5038104;28;20478;-78
2021/11/27 05:17:07;;;;;;;5.10;2.72;;;3.90;99.90;;;;;;4991537;28;20053;-81
2021/11/27 05:19:34;;;;;;;6.65;5.28;;;3.90;99.90;;;;;;5035006;28;20148;-80
2021/11/27 05:22:00;;;;;;;5.25;3.65;;;3.90;99.90;;;;;;5015136;28;20057;-79
2021/11/27 05:24:26;;;;;;;3.80;2.35;;;3.70;99.90;;;;;;5019331;28;20091;-81
2021/11/27 05:26:52;;;;;;;5.00;3.50;;;3.80;99.90;;;;;;5028582;28;20080;-81
2021/11/27 05:29:17;;;;;;;5.85;2.63;;;3.80;99.90;;;;;;5012977;28;20039;-80
2021/11/27 05:31:45;;;;;;;4.43;3.03;;;3.90;99.90;;;;;;5030890;28;20076;-79
2021/11/27 05:36:51;;;;;;;5.35;3.58;;;3.80;99.90;;;;;;5019471;28;20103;-80
2021/11/27 05:39:16;;;;;;;5.45;3.10;;;3.80;99.90;;;;;;5028029;28;20073;-81
2021/11/27 05:41:43;;;;;;;6.43;4.85;;;3.80;99.90;;;;;;5030530;28;20478;-82
2021/11/27 05:44:09;;;;;;;3.42;3.20;;;3.90;99.90;;;;;;5029539;28;20080;-83
2021/11/27 05:46:35;;;;;;;7.35;4.45;;;3.90;99.90;;;;;;5029633;28;20068;-82
2021/11/27 05:49:01;;;;;;;3.83;3.47;;;3.90;99.90;;;;;;5025416;28;20041;-80
2021/11/27 05:51:26;;;;;;;6.03;3.67;;;3.80;99.90;;;;;;5026055;28;20100;-82
2021/11/27 05:53:52;;;;;;;4.47;3.60;;;3.90;99.90;;;;;;5007684;28;20602;-79
2021/11/27 05:56:18;;;;;;;3.60;3.30;;;3.90;99.90;;;;;;5029702;28;20099;-79
2021/11/27 05:58:44;;;;;;;5.32;2.92;;;4.00;99.90;;;;;;5029831;28;20049;-78
2021/11/27 06:01:10;;;;;;;6.68;4.18;;;3.90;99.90;;;;;;5025303;28;20046;-78
2021/11/27 06:03:36;;;;;;;3.10;2.85;;;3.90;99.90;;;;;;5030844;28;20108;-78
2021/11/27 06:06:02;;;;;;;;;;;3.80;99.90;;;;;;5004656;28;20099;-78
2021/11/27 06:08:30;;;;;;;9.93;4.60;;;3.90;99.90;;;;;;4985189;28;19928;-80
2021/11/27 06:10:57;;;;;;;3.83;2.88;;;4.00;99.90;;;;;;5030897;28;20124;-79
2021/11/27 06:13:23;;;;;;;5.97;4.88;;;3.90;99.90;;;;;;5013296;28;20049;-77
2021/11/27 06:15:50;;;;;;;6.13;5.55;;;3.90;99.90;;;;;;5000338;28;20502;-78
2021/11/27 06:18:15;;;;;;;4.57;3.25;;;3.90;99.90;;;;;;5030996;28;20053;-79
2021/11/27 06:20:41;;;;;;;3.92;3.63;;;3.90;99.90;;;;;;5025754;28;20450;-79
2021/11/27 06:23:07;;;;;;;4.25;3.33;;;3.90;99.90;;;;;;5041861;28;20067;-79
2021/11/27 06:25:33;;;;;;;3.55;3.25;;;4.00;99.90;;;;;;5014328;28;20088;-81
2021/11/27 06:28:00;;;;;;;5.05;2.97;;;3.90;99.90;;;;;;5038267;28;20049;-79
2021/11/27 06:30:25;;;;;;;4.85;4.20;;;3.90;99.90;;;;;;5035661;28;20038;-78
2021/11/27 06:32:51;;;;;;;4.18;3.53;;;3.90;99.90;;;;;;5045622;28;20037;-78
2021/11/27 06:35:17;;;;;;;4.70;3.28;;;3.80;99.90;;;;;;5022220;28;20046;-79
2021/11/27 06:37:43;;;;;;;4.75;2.38;;;3.90;99.90;;;;;;5020938;28;20132;-80
2021/11/27 06:40:10;;;;;;;4.03;2.25;;;3.80;99.90;;;;;;5008642;28;20054;-80
2021/11/27 06:42:36;;;;;;;3.15;2.55;;;3.90;99.90;;;;;;5042639;28;20133;-80
2021/11/27 06:45:02;;;;;;;8.93;5.32;;;3.70;99.90;;;;;;5022194;28;20124;-81
2021/11/27 06:47:29;;;;;;;1.92;1.83;;;3.90;99.90;;;;;;5020054;28;20041;-80
2021/11/27 06:49:55;;;;;;;10.20;3.38;;;;;;;;;;5037468;28;20138;-78
2021/11/27 06:52:21;;;;;;;4.15;3.25;;;3.80;99.90;;;;;;5017885;28;20036;-81
2021/11/27 06:54:47;;;;;;;9.73;4.13;;;3.80;99.90;;;;;;5032209;28;20041;-80
2021/11/27 06:57:13;;;;;;;10.63;5.68;;;3.70;99.90;;;;;;5017663;28;20099;-81
2021/11/27 06:59:40;;;;;;;6.97;4.07;;;3.80;99.90;;;;;;5012105;28;20141;-81
2021/11/27 07:02:06;;;;;;;10.60;4.05;;;3.80;99.90;;;;;;5026494;28;20068;-81
2021/11/27 07:04:31;;;;;;;4.18;3.88;;;3.80;99.90;;;;;;5021857;28;20155;-81
2021/11/27 07:06:58;;;;;;;5.28;3.30;;;;;;;;;;5015724;28;20041;-78
2021/11/27 07:09:23;;;;;;;8.23;3.90;;;3.90;99.90;;;;;;5025012;28;20092;-79
2021/11/27 07:11:50;;;;;;;4.28;3.13;;;3.80;99.90;;;;;;5027775;28;20045;-79
2021/11/27 07:14:16;;;;;;;3.08;2.40;;;3.80;99.90;;;;;;5019213;28;20054;-80
2021/11/27 07:16:42;;;;;;;;;;;3.80;99.90;;;;;;5009347;28;20038;-81
2021/11/27 07:19:08;;;;;;;6.50;3.85;;;3.80;99.90;;;;;;5029943;28;19928;-79
2021/11/27 07:21:34;;;;;;;;;;;3.80;99.90;;;;;;5045276;28;20068;-80
2021/11/27 07:23:59;;;;;;;6.22;3.03;;;3.80;99.90;;;;;;5019094;28;20008;-78
2021/11/27 07:26:25;;;;;;;7.63;3.17;;;3.80;99.90;;;;;;5026664;28;20593;-77
2021/11/27 07:28:55;;;;;;;9.35;3.65;;;3.80;99.90;;;;;;5033491;28;20049;-78
2021/11/27 07:31:20;;;;;;;3.25;2.22;;;3.80;99.90;;;;;;5039228;28;20048;-80
2021/11/27 07:33:47;;;;;;;7.38;4.10;;;3.70;99.90;;;;;;5023738;28;20419;-81
2021/11/27 07:36:12;;;;;;;7.90;3.72;;;3.80;99.90;;;;;;5034894;28;20472;-81
2021/11/27 07:38:38;;;;;;;6.10;4.25;;;3.80;99.90;;;;;;5029732;28;20061;-80
2021/11/27 07:41:05;;;;;;;3.00;2.45;;;3.70;99.90;;;;;;4995757;28;20050;-79
2021/11/27 07:43:33;;;;;;;3.45;3.10;;;3.70;99.90;;;;;;5039762;28;20486;-79
2021/11/27 07:45:59;;;;;;;3.67;3.38;;;3.80;99.90;;;;;;5018976;28;20080;-78
2021/11/27 07:48:31;;;;;;;;;;;3.70;99.90;;;;;;5022374;28;20037;-78
2021/11/27 07:50:57;;;;;;;4.45;3.10;;;3.70;99.90;;;;;;5033507;28;20016;-84
2021/11/27 07:53:23;;;;;;;4.75;1.95;;;;;;;;;;5021550;28;20046;-78
2021/11/27 07:55:49;;;;;;;4.45;3.20;;;3.90;99.90;;;;;;5029303;28;20399;-78
2021/11/27 07:58:14;;;;;;;4.20;3.75;;;3.80;99.90;;;;;;5032585;28;20045;-79
2021/11/27 08:00:40;;;;;;;3.92;2.15;;;3.80;99.90;;;;;;5026270;28;20037;-80
2021/11/27 08:03:06;;;;;;;2.45;2.25;;;3.80;99.90;;;;;;5030482;28;20143;-78
2021/11/27 08:05:31;;;;;;;5.20;3.17;;;3.80;99.90;;;;;;5027262;28;20045;-80
2021/11/27 08:07:57;;;;;;;6.22;2.85;;;3.80;99.90;;;;;;5045841;28;20097;-76
2021/11/27 08:10:23;;;;;;;7.82;3.30;;;3.90;99.90;;;;;;5036180;28;20088;-82
2021/11/27 08:12:49;;;;;;;3.53;2.72;;;4.20;99.90;;;;;;5022569;28;20047;-80
2021/11/27 08:15:14;;;;;;;3.15;2.38;;;3.70;99.90;;;;;;5011181;28;20034;-83
2021/11/27 08:17:40;;;;;;;10.40;3.83;;;3.90;99.90;;;;;;5022690;28;20132;-78
2021/11/27 08:20:08;;;;;;;6.30;3.42;;;3.90;99.90;;;;;;5028005;28;20046;-81
2021/11/27 08:22:34;;;;;;;3.03;2.55;;;3.90;99.90;;;;;;5013979;28;20053;-81
2021/11/27 08:25:00;;;;;;;5.57;2.55;;;3.90;99.90;;;;;;5017367;28;20145;-78
2021/11/27 08:27:27;;;;;;;;;;;4.00;99.90;;;;;;5037597;28;20115;-79
2021/11/27 08:29:57;;;;;;;7.03;3.58;;;3.90;99.90;;;;;;5053414;28;19923;-80
2021/11/27 08:32:23;;;;;;;4.60;2.70;;;3.90;99.90;;;;;;5033461;28;20041;-81
2021/11/27 08:34:49;;;;;;;;;;;3.90;99.90;;;;;;4987904;28;20048;-79
2021/11/27 08:37:15;;;;;;;3.00;2.70;;;3.90;99.90;;;;;;5029688;28;19917;-81
2021/11/27 08:39:40;;;;;;;;;;;4.00;99.90;;;;;;5018944;28;20042;-81
2021/11/27 08:42:06;;;;;;;4.63;3.78;;;3.90;99.90;;;;;;5029495;28;19921;-81
2021/11/27 08:44:32;;;;;;;4.53;2.65;;;4.00;99.90;;;;;;5012149;28;20040;-83
2021/11/27 08:46:58;;;;;;;11.55;3.60;;;4.00;99.90;;;;;;5034681;28;20431;-84
2021/11/27 08:49:23;;;;;;;6.32;2.70;;;3.90;99.90;;;;;;5025774;28;20453;-83
2021/11/27 08:51:49;;;;;;;3.88;3.53;;;4.00;99.90;;;;;;5020354;28;20116;-81
2021/11/27 08:54:16;;;;;;;4.53;2.50;;;3.90;99.90;;;;;;5002746;28;20030;-81
2021/11/27 08:56:43;;;;;;;4.72;4.05;;;4.00;99.90;;;;;;5017416;28;20046;-83
2021/11/27 08:59:09;;;;;;;6.00;3.88;;;4.00;99.90;;;;;;5018077;28;20045;-81
2021/11/27 09:01:35;;;;;;;6.72;3.35;;;3.90;99.90;;;;;;5005303;28;20051;-79
2021/11/27 09:04:01;;;;;;;3.08;2.83;;;;;;;;;;5014907;28;20435;-81
2021/11/27 09:06:27;;;;;;;;;;;;;;;;;;5037155;28;20494;-80
2021/11/27 09:08:53;;;;;;;6.03;3.13;;;;;;;;;;5040588;28;19978;-79
2021/11/27 09:11:21;;;;;;;5.28;3.60;;;4.10;99.90;;;;;;5033154;28;20052;-80
2021/11/27 09:13:48;;;;;;;3.50;2.60;;;;;;;;;;5038864;28;20038;-83
2021/11/27 09:16:15;;;;;;;6.35;2.85;;;;;;;;;;5037214;28;20487;-82
2021/11/27 09:18:41;;;;;;;3.90;3.50;;;;;;;;;;5033209;28;20041;-80
2021/11/27 09:21:07;;;;;;;7.35;2.83;;;;;;;;;;5032101;28;20073;-81
2021/11/27 09:23:33;;;;;;;;;;;;;;;;;;5029572;28;20049;-80
2021/11/27 09:25:59;;;;;;;1.73;1.58;;;;;;;;;;5029173;28;19928;-79
2021/11/27 09:28:25;;;;;;;6.38;3.28;;;;;;;;;;5034408;28;20045;-82
2021/11/27 09:30:51;;;;;;;;;;;;;;;;;;5037530;28;20037;-83
2021/11/27 09:33:19;;;;;;;6.38;2.95;;;;;;;;;;5026674;28;19928;-80
2021/11/27 09:36:02;;;;;;;5.53;2.63;;;;;;;;;;5020059;28;20037;-83
2021/11/27 09:38:28;;;;;;;3.13;2.67;;;;;;;;;;5026498;28;20099;-79
2021/11/27 09:41:08;;;;;;;5.15;2.40;;;;;;;;;;5011843;28;20045;-78
2021/11/27 09:43:34;;;;;;;4.93;2.95;;;;;;;;;;5030495;28;20079;-79
2021/11/27 09:46:00;;;;;;;12.18;4.38;;;;;;;;;;5015200;28;20387;-81
2021/11/27 09:48:26;;;;;;;;;;;;;;;;;;5020040;28;20128;-80
2021/11/27 09:50:53;;;;;;;4.88;1.75;;;;;;;;;;5022158;28;20016;-78
2021/11/27 09:53:21;;;;;;;3.85;2.28;;;;;;;;;;5030828;28;20136;-82
2021/11/27 09:55:48;;;;;;;4.53;3.35;;;;;;;;;;5016770;28;20044;-79
2021/11/27 09:58:14;;;;;;;4.07;3.53;;;;;;;;;;5022446;28;20128;-80
2021/11/27 10:00:40;;;;;;;10.20;4.93;;;;;;;;;;5012822;28;20134;-79
2021/11/27 10:03:08;;;;;;;10.70;3.72;;;;;;;;;;5004294;28;20052;-80
2021/11/27 10:05:35;;;;;;;3.45;3.17;;;;;;;;;;5021344;28;20137;-82
2021/11/27 10:08:01;;;;;;;;;;;;;;;;;;5024115;28;20038;-80
2021/11/27 10:10:27;;;;;;;3.95;3.65;;;;;;;;;;5019875;28;19918;-83
2021/11/27 10:12:54;;;;;;;3.20;2.53;;;;;;;;;;5032622;28;20360;-80
2021/11/27 10:15:20;;;;;;;3.20;2.72;;;;;;;;;;5024167;28;20045;-82
2021/11/27 10:17:46;;;;;;;4.25;1.83;;;;;;;;;;5023325;28;20421;-79
2021/11/27 10:20:12;;;;;;;;;;;;;;;;;;5040585;28;20049;-82
2021/11/27 10:22:38;;;;;;;4.40;2.83;;;;;;;;;;5014372;28;19921;-81
2021/11/27 10:25:25;;;;;;;7.32;2.92;;;;;;;;;;5024328;28;20491;-79
2021/11/27 10:27:52;;;;;;;5.55;2.55;;;;;;;;;;5049209;28;20116;-84
2021/11/27 10:30:18;;;;;;;3.28;2.53;;;;;;;;;;5017187;28;20172;-80
2021/11/27 10:32:46;;;;;;;4.55;3.05;;;;;;;;;;5006598;28;20069;-82
2021/11/27 10:35:13;;;;;;;2.58;1.90;;;;;;;;;;5012295;28;20337;-83
2021/11/27 10:37:39;;;;;;;2.63;2.42;;;;;;;;;;5004686;28;20355;-79
2021/11/27 10:40:05;;;;;;;;;;;;;;;;;;5034516;28;20049;-82
2021/11/27 10:42:32;;;;;;;3.80;2.72;;;;;;;;;;5022259;28;19917;-79
2021/11/27 10:45:09;;;;;;;3.38;2.38;;;;;;;;;;5046991;28;20052;-78
2021/11/27 10:47:35;;;;;;;;;;;;;;;;;;5042118;28;20042;-79
2021/11/27 10:50:05;;;;;;;4.97;2.65;;;;;;;;;;5040641;28;19921;-81
2021/11/27 10:52:36;;;;;;;2.85;2.63;;;;;;;;;;5034666;28;20038;-81
2021/11/27 10:55:14;;;;;;;7.05;3.60;;;;;;;;;;5010970;28;20071;-81
2021/11/27 10:57:40;;;;;;;3.35;2.05;;;;;;;;;;5020888;28;20486;-83
2021/11/27 11:00:06;;;;;;;;;;;;;;;;;;5031153;28;20569;-83
2021/11/27 11:02:33;;;;;;;2.92;2.55;;;;;;;;;;5027233;28;20004;-79
2021/11/27 11:05:11;;;;;;;3.67;3.00;;;;;;;;;;5023614;28;20041;-79
2021/11/27 11:07:38;;;;;;;5.55;2.53;;;;;;;;;;5037107;28;20041;-80
2021/11/27 11:10:20;;;;;;;4.88;3.47;;;;;;;;;;5043586;28;20616;-80
2021/11/27 11:12:58;;;;;;;2.80;2.35;;;;;;;;;;4993459;28;20048;-82
2021/11/27 11:15:32;;;;;;;3.95;3.50;;;;;;;;;;5028287;28;20041;-80
2021/11/27 11:18:04;;;;;;;3.72;2.20;;;;;;;;;;5029033;28;20073;-82
2021/11/27 11:20:31;;;;;;;7.53;4.43;;;;;;;;;;5035471;28;20119;-82
2021/11/27 11:22:57;;;;;;;;;;;;;;;;;;5011090;28;20054;-80
2021/11/27 11:25:23;;;;;;;10.68;3.40;;;;;;;;;;5028274;28;19925;-79
2021/11/27 11:27:49;;;;;;;;;;;;;;;;;;5037559;28;20048;-81
2021/11/27 11:30:18;;;;;;;4.35;3.03;;;;;;;;;;5032936;28;19924;-81
2021/11/27 11:32:44;;;;;;;3.00;1.92;;;;;;;;;;5017904;28;20047;-82
2021/11/27 11:35:10;;;;;;;3.90;2.58;;;;;;;;;;5017061;28;20128;-80
2021/11/27 11:37:36;;;;;;;;;;;;;;;;;;5013526;28;20091;-80
2021/11/27 11:40:03;;;;;;;6.70;3.50;;;;;;;;;;5025328;28;19921;-82
2021/11/27 11:42:29;;;;;;;7.43;2.88;;;5.30;99.90;;;;;;5026498;28;20045;-81
2021/11/27 11:44:56;;;;;;;2.33;2.10;;;5.40;99.90;;;;;;5008229;28;20045;-81
2021/11/27 11:47:23;;;;;;;3.13;2.65;;;5.40;99.90;;;;;;5014416;28;20041;-80
2021/11/27 11:49:59;;;;;;;5.10;2.22;;;5.20;99.90;;;;;;5007243;28;20384;-81
2021/11/27 11:52:27;;;;;;;4.05;3.67;;;5.10;99.90;;;;;;5014134;28;20045;-82
2021/11/27 11:55:11;;;;;;;3.00;2.70;;;5.20;99.90;;;;;;5023970;28;20121;-84
2021/11/27 11:57:49;;;;;;;5.15;2.65;;;5.10;99.90;;;;;;5025422;28;20124;-80
2021/11/27 12:00:37;;;;;;;5.10;3.45;;;5.10;99.90;;;;;;5027831;28;20064;-81
2021/11/27 12:03:07;;;;;;;3.90;3.13;;;5.20;99.90;;;;;;5019065;28;20053;-80
2021/11/27 12:05:35;;;;;;;9.40;3.33;;;5.20;99.90;;;;;;5002308;28;20152;-81
2021/11/27 12:08:04;;;;;;;3.22;2.90;;;5.10;99.90;;;;;;5025141;28;20763;-83
2021/11/27 12:10:44;;;;;;;3.42;1.98;;;5.10;99.90;;;;;;5023680;28;20042;-81
2021/11/27 12:13:10;;;;;;;5.45;2.47;;;5.10;99.90;;;;;;5020149;28;20045;-79
2021/11/27 12:15:41;;;;;;;2.25;2.00;;;5.20;99.90;;;;;;5034470;28;20040;-83
2021/11/27 12:18:12;;;;;;;1.95;1.63;;;5.20;99.90;;;;;;5013877;28;20132;-80
2021/11/27 12:20:46;;;;;;;1.73;1.38;;;5.20;99.90;;;;;;5027860;28;20045;-83
2021/11/27 12:23:45;;;;;;;1.35;1.25;;;5.20;99.90;;;;;;5017262;28;21173;-81
2021/11/27 12:26:20;;;;;;;1.65;1.52;;;5.10;99.90;;;;;;4979252;28;20600;-81
2021/11/27 12:28:49;;;;;;;2.35;1.98;;;5.10;99.90;;;;;;5006253;28;20104;-81
2021/11/27 12:31:23;;;;;;;2.83;2.42;;;5.10;99.90;;;;;;5009259;28;20034;-81
2021/11/27 12:34:00;;;;;;;1.95;1.80;;;5.00;99.90;;;;;;5008406;28;20046;-79
2021/11/27 12:36:30;;;;;;;2.45;2.03;;;5.00;99.90;;;;;;5025893;28;20052;-80
2021/11/27 12:39:20;;;;;;;1.58;1.20;;;5.00;99.90;;;;;;5027011;28;20102;-79
2021/11/27 12:41:47;;;;;;;5.85;2.20;;;5.00;99.90;;;;;;5030148;28;20065;-80
2021/11/27 12:44:48;;;;;;;2.80;2.10;;;5.00;99.90;;;;;;5019000;28;20077;-80
2021/11/27 12:47:14;;;;;;;3.60;3.13;;;5.00;99.90;;;;;;5018496;28;20060;-79
2021/11/27 12:50:03;;;;;;;2.75;2.53;;;5.00;99.90;;;;;;5028993;28;20045;-80
2021/11/27 12:52:35;;;;;;;2.08;1.80;;;4.90;99.90;;;;;;5027820;28;20524;-80
2021/11/27 12:55:13;;;;;;;2.38;1.60;;;4.90;99.90;;;;;;5008763;28;20360;-81
2021/11/27 12:57:41;;;;;;;1.77;1.67;;;4.90;99.90;;;;;;5000579;28;20379;-81
2021/11/27 13:00:24;;;;;;;3.88;2.08;;;4.90;99.90;;;;;;5031714;28;20046;-82
2021/11/27 13:02:58;;;;;;;2.03;1.55;;;4.90;99.90;;;;;;5026922;28;20041;-80
2021/11/27 13:05:39;;;;;;;2.67;1.85;;;4.80;99.90;;;;;;5027006;28;20479;-80
2021/11/27 13:08:07;;;;;;;1.95;1.65;;;4.80;99.90;;;;;;5036908;28;20045;-81
2021/11/27 13:10:42;;;;;;;4.38;2.65;;;4.80;99.90;;;;;;5025675;28;20627;-80
2021/11/27 13:13:17;;;;;;;3.83;2.25;;;4.80;99.90;;;;;;5011167;28;20179;-80
2021/11/27 13:15:44;;;;;;;2.83;2.22;;;4.80;99.90;;;;;;5028678;28;20044;-80
2021/11/27 13:18:17;;;;;;;4.05;2.83;;;4.80;99.90;;;;;;5021535;28;20056;-80
2021/11/27 13:20:59;;;;;;;5.10;1.33;;;4.80;99.90;;;;;;5019856;28;20154;-80
2021/11/27 13:23:28;;;;;;;2.05;1.92;;;4.80;99.90;;;;;;5026864;28;20562;-81
2021/11/27 13:25:55;;;;;;;3.33;2.20;;;4.70;99.90;;;;;;5010695;28;20060;-81
2021/11/27 13:28:33;;;;;;;2.22;1.50;;;4.70;99.90;;;;;;5019353;28;20042;-81
2021/11/27 13:31:01;;;;;;;3.00;2.22;;;4.60;99.90;;;;;;5028338;28;20395;-80